sensor_id;sensor_type;location;lat;lon;timestamp;P1;durP1;ratioP1;P2;durP2;ratioP2
36497;SDS011;22513;51.222;6.480;2023-01-31T00:01:04;22.63;;;3.83;;
36497;SDS011;22513;51.222;6.480;2023-01-31T00:03:31;20.90;;;5.03;;
36497;SDS011;22513;51.222;6.480;2023-01-31T00:05:56;21.48;;;5.25;;
36497;SDS011;22513;51.222;6.480;2023-01-31T00:08:22;22.23;;;4.53;;
36497;SDS011;22513;51.222;6.480;2023-01-31T00:10:47;24.02;;;5.60;;
36497;SDS011;22513;51.222;6.480;2023-01-31T00:13:13;21.02;;;6.07;;
36497;SDS011;22513;51.222;6.480;2023-01-31T00:15:39;24.48;;;5.78;;
36497;SDS011;22513;51.222;6.480;2023-01-31T00:18:04;30.45;;;5.07;;
36497;SDS011;22513;51.222;6.480;2023-01-31T00:20:30;23.92;;;4.95;;
36497;SDS011;22513;51.222;6.480;2023-01-31T00:22:56;27.17;;;5.70;;
36497;SDS011;22513;51.222;6.480;2023-01-31T00:25:22;21.40;;;5.55;;
36497;SDS011;22513;51.222;6.480;2023-01-31T00:27:48;22.50;;;5.25;;
36497;SDS011;22513;51.222;6.480;2023-01-31T00:30:13;36.88;;;6.28;;
36497;SDS011;22513;51.222;6.480;2023-01-31T00:32:39;33.50;;;6.10;;
36497;SDS011;22513;51.222;6.480;2023-01-31T00:35:04;34.03;;;8.40;;
36497;SDS011;22513;51.222;6.480;2023-01-31T00:37:30;33.72;;;7.68;;
36497;SDS011;22513;51.222;6.480;2023-01-31T00:39:56;37.40;;;8.77;;
36497;SDS011;22513;51.222;6.480;2023-01-31T00:42:21;42.55;;;8.73;;
36497;SDS011;22513;51.222;6.480;2023-01-31T00:44:47;34.95;;;8.13;;
36497;SDS011;22513;51.222;6.480;2023-01-31T00:47:12;37.33;;;8.50;;
36497;SDS011;22513;51.222;6.480;2023-01-31T00:49:38;29.75;;;8.57;;
36497;SDS011;22513;51.222;6.480;2023-01-31T00:52:04;38.00;;;9.30;;
36497;SDS011;22513;51.222;6.480;2023-01-31T00:54:29;29.90;;;6.95;;
36497;SDS011;22513;51.222;6.480;2023-01-31T00:56:55;28.90;;;7.03;;
36497;SDS011;22513;51.222;6.480;2023-01-31T00:59:20;32.05;;;8.70;;
36497;SDS011;22513;51.222;6.480;2023-01-31T01:01:46;39.17;;;10.20;;
36497;SDS011;22513;51.222;6.480;2023-01-31T01:04:11;42.00;;;9.77;;
36497;SDS011;22513;51.222;6.480;2023-01-31T01:06:37;28.48;;;8.50;;
36497;SDS011;22513;51.222;6.480;2023-01-31T01:09:05;34.05;;;7.43;;
36497;SDS011;22513;51.222;6.480;2023-01-31T01:11:31;25.33;;;6.88;;
36497;SDS011;22513;51.222;6.480;2023-01-31T01:13:58;27.30;;;6.32;;
36497;SDS011;22513;51.222;6.480;2023-01-31T01:16:32;27.13;;;7.00;;
36497;SDS011;22513;51.222;6.480;2023-01-31T01:19:03;24.70;;;7.07;;
36497;SDS011;22513;51.222;6.480;2023-01-31T01:21:30;23.67;;;8.25;;
36497;SDS011;22513;51.222;6.480;2023-01-31T01:23:58;19.55;;;5.88;;
36497;SDS011;22513;51.222;6.480;2023-01-31T01:26:25;24.08;;;6.97;;
36497;SDS011;22513;51.222;6.480;2023-01-31T01:28:52;22.08;;;6.05;;
36497;SDS011;22513;51.222;6.480;2023-01-31T01:31:20;29.38;;;5.78;;
36497;SDS011;22513;51.222;6.480;2023-01-31T01:33:47;22.25;;;5.78;;
36497;SDS011;22513;51.222;6.480;2023-01-31T01:36:14;22.63;;;5.80;;
36497;SDS011;22513;51.222;6.480;2023-01-31T01:38:41;26.35;;;5.85;;
36497;SDS011;22513;51.222;6.480;2023-01-31T01:41:08;23.55;;;5.60;;
36497;SDS011;22513;51.222;6.480;2023-01-31T01:43:54;24.35;;;4.72;;
36497;SDS011;22513;51.222;6.480;2023-01-31T01:49:24;28.45;;;5.15;;
36497;SDS011;22513;51.222;6.480;2023-01-31T01:51:57;17.00;;;4.22;;
36497;SDS011;22513;51.222;6.480;2023-01-31T01:54:27;26.08;;;5.45;;
36497;SDS011;22513;51.222;6.480;2023-01-31T01:56:59;20.00;;;4.95;;
36497;SDS011;22513;51.222;6.480;2023-01-31T01:59:32;31.48;;;6.13;;
36497;SDS011;22513;51.222;6.480;2023-01-31T02:02:01;26.85;;;5.38;;
36497;SDS011;22513;51.222;6.480;2023-01-31T02:04:29;22.05;;;5.28;;
36497;SDS011;22513;51.222;6.480;2023-01-31T02:06:57;28.25;;;5.93;;
36497;SDS011;22513;51.222;6.480;2023-01-31T02:09:30;26.30;;;6.38;;
36497;SDS011;22513;51.222;6.480;2023-01-31T02:12:09;32.13;;;6.18;;
36497;SDS011;22513;51.222;6.480;2023-01-31T02:14:36;21.13;;;5.65;;
36497;SDS011;22513;51.222;6.480;2023-01-31T02:17:02;22.85;;;6.32;;
36497;SDS011;22513;51.222;6.480;2023-01-31T02:22:37;26.85;;;6.38;;
36497;SDS011;22513;51.222;6.480;2023-01-31T02:33:43;35.03;;;7.00;;
36497;SDS011;22513;51.222;6.480;2023-01-31T02:39:21;28.13;;;6.95;;
36497;SDS011;22513;51.222;6.480;2023-01-31T02:41:56;27.83;;;7.63;;
36497;SDS011;22513;51.222;6.480;2023-01-31T02:44:37;25.95;;;6.80;;
36497;SDS011;22513;51.222;6.480;2023-01-31T02:47:32;31.00;;;6.85;;
36497;SDS011;22513;51.222;6.480;2023-01-31T02:50:14;24.15;;;6.97;;
36497;SDS011;22513;51.222;6.480;2023-01-31T02:58:06;28.08;;;6.43;;
36497;SDS011;22513;51.222;6.480;2023-01-31T03:00:35;28.00;;;5.63;;
36497;SDS011;22513;51.222;6.480;2023-01-31T03:03:04;27.13;;;7.03;;
36497;SDS011;22513;51.222;6.480;2023-01-31T03:05:32;31.52;;;7.72;;
36497;SDS011;22513;51.222;6.480;2023-01-31T03:07:58;22.58;;;6.15;;
36497;SDS011;22513;51.222;6.480;2023-01-31T03:13:33;18.48;;;6.03;;
36497;SDS011;22513;51.222;6.480;2023-01-31T03:16:26;21.08;;;8.95;;
36497;SDS011;22513;51.222;6.480;2023-01-31T03:19:15;26.88;;;8.55;;
36497;SDS011;22513;51.222;6.480;2023-01-31T03:21:59;32.90;;;7.72;;
36497;SDS011;22513;51.222;6.480;2023-01-31T03:24:29;30.90;;;7.50;;
36497;SDS011;22513;51.222;6.480;2023-01-31T03:26:56;27.23;;;7.85;;
36497;SDS011;22513;51.222;6.480;2023-01-31T03:29:24;23.77;;;7.30;;
36497;SDS011;22513;51.222;6.480;2023-01-31T03:31:53;21.13;;;7.80;;
36497;SDS011;22513;51.222;6.480;2023-01-31T03:34:22;29.55;;;9.27;;
36497;SDS011;22513;51.222;6.480;2023-01-31T03:36:53;35.20;;;9.15;;
36497;SDS011;22513;51.222;6.480;2023-01-31T03:42:09;29.55;;;10.18;;
36497;SDS011;22513;51.222;6.480;2023-01-31T03:47:38;26.70;;;9.07;;
36497;SDS011;22513;51.222;6.480;2023-01-31T03:52:51;42.15;;;9.93;;
36497;SDS011;22513;51.222;6.480;2023-01-31T03:55:23;33.08;;;10.40;;
36497;SDS011;22513;51.222;6.480;2023-01-31T03:58:10;39.78;;;9.73;;
36497;SDS011;22513;51.222;6.480;2023-01-31T04:00:40;30.15;;;10.52;;
36497;SDS011;22513;51.222;6.480;2023-01-31T04:03:12;40.65;;;10.48;;
36497;SDS011;22513;51.222;6.480;2023-01-31T04:05:59;38.15;;;11.05;;
36497;SDS011;22513;51.222;6.480;2023-01-31T04:08:25;29.60;;;11.73;;
36497;SDS011;22513;51.222;6.480;2023-01-31T04:10:50;37.92;;;10.90;;
36497;SDS011;22513;51.222;6.480;2023-01-31T04:13:18;34.97;;;10.45;;
36497;SDS011;22513;51.222;6.480;2023-01-31T04:15:43;37.75;;;9.95;;
36497;SDS011;22513;51.222;6.480;2023-01-31T04:18:09;38.00;;;10.95;;
36497;SDS011;22513;51.222;6.480;2023-01-31T04:20:34;31.13;;;11.63;;
36497;SDS011;22513;51.222;6.480;2023-01-31T04:23:00;30.30;;;11.18;;
36497;SDS011;22513;51.222;6.480;2023-01-31T04:25:27;36.53;;;11.30;;
36497;SDS011;22513;51.222;6.480;2023-01-31T04:27:52;35.40;;;11.20;;
36497;SDS011;22513;51.222;6.480;2023-01-31T04:30:18;42.08;;;11.40;;
36497;SDS011;22513;51.222;6.480;2023-01-31T04:32:43;22.77;;;9.65;;
36497;SDS011;22513;51.222;6.480;2023-01-31T04:35:09;33.45;;;10.80;;
36497;SDS011;22513;51.222;6.480;2023-01-31T04:37:35;33.72;;;10.32;;
36497;SDS011;22513;51.222;6.480;2023-01-31T04:40:00;36.72;;;13.32;;
36497;SDS011;22513;51.222;6.480;2023-01-31T04:42:26;27.33;;;11.23;;
36497;SDS011;22513;51.222;6.480;2023-01-31T04:44:52;27.42;;;10.85;;
36497;SDS011;22513;51.222;6.480;2023-01-31T04:47:17;26.55;;;12.15;;
36497;SDS011;22513;51.222;6.480;2023-01-31T04:49:43;32.85;;;11.77;;
36497;SDS011;22513;51.222;6.480;2023-01-31T04:52:09;27.73;;;12.20;;
36497;SDS011;22513;51.222;6.480;2023-01-31T04:54:35;37.95;;;13.05;;
36497;SDS011;22513;51.222;6.480;2023-01-31T04:57:00;36.42;;;12.35;;
36497;SDS011;22513;51.222;6.480;2023-01-31T04:59:26;25.73;;;11.18;;
36497;SDS011;22513;51.222;6.480;2023-01-31T05:01:52;41.35;;;12.25;;
36497;SDS011;22513;51.222;6.480;2023-01-31T05:04:18;29.67;;;12.40;;
36497;SDS011;22513;51.222;6.480;2023-01-31T05:06:43;39.35;;;13.02;;
36497;SDS011;22513;51.222;6.480;2023-01-31T05:09:09;26.85;;;11.65;;
36497;SDS011;22513;51.222;6.480;2023-01-31T05:11:36;40.65;;;12.88;;
36497;SDS011;22513;51.222;6.480;2023-01-31T05:14:02;35.38;;;12.32;;
36497;SDS011;22513;51.222;6.480;2023-01-31T05:16:27;41.83;;;13.10;;
36497;SDS011;22513;51.222;6.480;2023-01-31T05:18:53;34.63;;;11.32;;
36497;SDS011;22513;51.222;6.480;2023-01-31T05:21:19;35.38;;;12.00;;
36497;SDS011;22513;51.222;6.480;2023-01-31T05:23:44;39.15;;;14.07;;
36497;SDS011;22513;51.222;6.480;2023-01-31T05:26:10;36.28;;;12.88;;
36497;SDS011;22513;51.222;6.480;2023-01-31T05:28:36;34.80;;;11.82;;
36497;SDS011;22513;51.222;6.480;2023-01-31T05:31:02;29.05;;;12.15;;
36497;SDS011;22513;51.222;6.480;2023-01-31T05:33:30;38.28;;;13.35;;
36497;SDS011;22513;51.222;6.480;2023-01-31T05:35:58;33.63;;;12.52;;
36497;SDS011;22513;51.222;6.480;2023-01-31T05:38:24;41.58;;;13.07;;
36497;SDS011;22513;51.222;6.480;2023-01-31T05:40:50;42.30;;;13.35;;
36497;SDS011;22513;51.222;6.480;2023-01-31T05:43:15;32.58;;;11.50;;
36497;SDS011;22513;51.222;6.480;2023-01-31T05:45:41;46.63;;;14.32;;
36497;SDS011;22513;51.222;6.480;2023-01-31T05:48:07;29.05;;;10.88;;
36497;SDS011;22513;51.222;6.480;2023-01-31T05:50:33;34.45;;;11.52;;
36497;SDS011;22513;51.222;6.480;2023-01-31T05:52:58;41.10;;;13.20;;
36497;SDS011;22513;51.222;6.480;2023-01-31T05:55:25;33.40;;;11.60;;
36497;SDS011;22513;51.222;6.480;2023-01-31T05:57:54;33.92;;;14.00;;
36497;SDS011;22513;51.222;6.480;2023-01-31T06:00:21;38.20;;;12.43;;
36497;SDS011;22513;51.222;6.480;2023-01-31T06:02:47;32.63;;;10.60;;
36497;SDS011;22513;51.222;6.480;2023-01-31T06:05:13;31.13;;;10.70;;
36497;SDS011;22513;51.222;6.480;2023-01-31T06:07:39;34.05;;;10.45;;
36497;SDS011;22513;51.222;6.480;2023-01-31T06:10:06;30.15;;;10.30;;
36497;SDS011;22513;51.222;6.480;2023-01-31T06:12:33;35.80;;;11.15;;
36497;SDS011;22513;51.222;6.480;2023-01-31T06:14:59;33.35;;;10.70;;
36497;SDS011;22513;51.222;6.480;2023-01-31T06:17:25;30.90;;;10.35;;
36497;SDS011;22513;51.222;6.480;2023-01-31T06:19:51;36.83;;;11.70;;
36497;SDS011;22513;51.222;6.480;2023-01-31T06:22:17;33.60;;;9.65;;
36497;SDS011;22513;51.222;6.480;2023-01-31T06:24:43;35.63;;;11.45;;
36497;SDS011;22513;51.222;6.480;2023-01-31T06:27:09;33.95;;;11.82;;
36497;SDS011;22513;51.222;6.480;2023-01-31T06:29:34;33.38;;;10.77;;
36497;SDS011;22513;51.222;6.480;2023-01-31T06:32:00;33.25;;;9.88;;
36497;SDS011;22513;51.222;6.480;2023-01-31T06:34:26;32.53;;;9.73;;
36497;SDS011;22513;51.222;6.480;2023-01-31T06:36:51;35.22;;;11.20;;
36497;SDS011;22513;51.222;6.480;2023-01-31T06:39:17;33.40;;;10.00;;
36497;SDS011;22513;51.222;6.480;2023-01-31T06:41:43;33.67;;;10.25;;
36497;SDS011;22513;51.222;6.480;2023-01-31T06:44:08;29.20;;;8.98;;
36497;SDS011;22513;51.222;6.480;2023-01-31T06:46:34;30.55;;;9.88;;
36497;SDS011;22513;51.222;6.480;2023-01-31T06:49:00;32.97;;;11.32;;
